Granby, CO (80446)

2:23 PM MST on December 03, 2016 (GMT -0700)
Lake Granby Cabin #88 Sunny Shore | | Change Station

Elev 8360 ft 40.14 °N, 105.86 °W | Updated 10 minutes ago

Scattered Clouds
Scattered Clouds
20.7 °F
Feels Like 21 °F
N
1.0
Wind Variable Wind from ESE
Gusts 4.0 mph

Today
High -- | Low -- °F
--% Chance of Precip.
Yesterday
High -- | Low -- °F
Precip. -- in
Pressure 30.09 in
Visibility 10.0 miles
Clouds Scattered Clouds 4100 ft
Scattered Clouds 5000 ft
Scattered Clouds 9500 ft
Windchill 21 °F
Dew Point 11 °F
Humidity 66%
Rainfall 0.00 in
Snow Depth Not available.
7:09 AM 4:38 PM
Waxing Crescent, 17% visible
METAR K20V 032115Z AUTO 05003KT 10SM SCT041 SCT050 SCT095 00/M10 A3009 RMK AO2
Pressure 30.09 in
Visibility 10.0 miles
Clouds Scattered Clouds 4100 ft
Scattered Clouds 5000 ft
Scattered Clouds 9500 ft
Windchill 21 °F
Dew Point 11 °F
Humidity 66%
Rainfall 0.00 in
Snow Depth Not available.
7:09 AM 4:38 PM
Waxing Crescent, 17% visible
METAR K20V 032115Z AUTO 05003KT 10SM SCT041 SCT050 SCT095 00/M10 A3009 RMK AO2

10-Day Weather Forecast

Almanac

Astronomy

Dec. 03, 2016 Rise Set
Actual Time
Civil Twilight
Nautical Twilight
Astronomical Twilight
Moon
Length of Visible Light
Length of Day
Tomorrow will be .
, % of the Moon is Illuminated

Today's Extremes

State Highs State Lows

Community

WunderPhotos

Upload Photos

1,955,498 photos uploaded!

WunderBlog® & News

Nearby

Air Quality

  Air Quality AQ Index Pollutant
Not available.

Snow Depth

Station Depth Elevation

Earthquake Activity

City Distance Mag. Time & Date
Minimum magnitude displayed is 2.5.

Coastal Water Temperatures

Place Temperature

Stations

Nearby Weather Stations

Station Location Temp. Windchill Dew Point Humidity Wind Precip. Elev Updated Type
                   

Watches & Warnings

There are currently no watches in effect.